MSR2717 OEJN-HECA
Flight info
| Callsign | MSR2717 |
|---|---|
| Flight time | 1h 22m |
| Altitude | 40000 |
| Route | MIGDA L677 CVO |
| Aircraft | A359/H-SDE2E3GHIJ1J3J4J5LM1ORWXY/LB1D1 |
Departure
| Time | 2026-05-01 08:36 |
|---|---|
| Airport | King Abdulaziz International Airport (OEJN) |
Arrival
| Time | 2026-05-01 09:59 |
|---|---|
| Airport | Cairo International Airport (HECA) |
| Time | Latitude | Longitude | Altitude | Speed | Heading |
|---|---|---|---|---|---|
| 2026-05-01 08:19 | 21.67069 | 39.17202 | 48 ft | 0 kts | 291° |
| 2026-05-01 08:29 | 21.67067 | 39.17210 | 47 ft | 4 kts | 291° |
| 2026-05-01 08:29 | 21.67057 | 39.17235 | 48 ft | 2 kts | 291° |
| 2026-05-01 08:29 | 21.67049 | 39.17257 | 48 ft | 4 kts | 307° |
| 2026-05-01 08:29 | 21.67034 | 39.17272 | 48 ft | 4 kts | 345° |
| 2026-05-01 08:30 | 21.67014 | 39.17273 | 48 ft | 4 kts | 6° |
| 2026-05-01 08:30 | 21.66987 | 39.17270 | 48 ft | 4 kts | 7° |
| 2026-05-01 08:30 | 21.66981 | 39.17269 | 48 ft | 0 kts | 7° |
| 2026-05-01 08:32 | 21.67009 | 39.17273 | 48 ft | 8 kts | 8° |
| 2026-05-01 08:32 | 21.67073 | 39.17307 | 50 ft | 13 kts | 35° |
| 2026-05-01 08:32 | 21.67149 | 39.17379 | 50 ft | 14 kts | 46° |
| 2026-05-01 08:32 | 21.67193 | 39.17484 | 56 ft | 17 kts | 109° |
| 2026-05-01 08:33 | 21.67076 | 39.17549 | 54 ft | 23 kts | 160° |
| 2026-05-01 08:33 | 21.66907 | 39.17615 | 59 ft | 28 kts | 160° |
| 2026-05-01 08:33 | 21.66727 | 39.17685 | 55 ft | 30 kts | 161° |
| 2026-05-01 08:33 | 21.66605 | 39.17741 | 55 ft | 15 kts | 141° |
| 2026-05-01 08:34 | 21.66602 | 39.17848 | 61 ft | 16 kts | 70° |
| 2026-05-01 08:34 | 21.66619 | 39.17900 | 58 ft | 0 kts | 70° |
| 2026-05-01 08:35 | 21.66622 | 39.17907 | 60 ft | 6 kts | 70° |
| 2026-05-01 08:35 | 21.66658 | 39.17998 | 57 ft | 20 kts | 59° |
| 2026-05-01 08:35 | 21.66735 | 39.18014 | 55 ft | 0 kts | 339° |
| 2026-05-01 08:35 | 21.66749 | 39.18008 | 57 ft | 11 kts | 340° |
| 2026-05-01 08:36 | 21.67014 | 39.17904 | 54 ft | 76 kts | 340° |
| 2026-05-01 08:36 | 21.67729 | 39.17623 | 54 ft | 140 kts | 340° |
| 2026-05-01 08:36 | 21.68757 | 39.17213 | 518 ft | 155 kts | 340° |
| 2026-05-01 08:36 | 21.69774 | 39.16810 | 1293 ft | 160 kts | 341° |
| 2026-05-01 08:37 | 21.70922 | 39.16475 | 1658 ft | 184 kts | 349° |
| 2026-05-01 08:37 | 21.72279 | 39.16295 | 1908 ft | 208 kts | 354° |
| 2026-05-01 08:37 | 21.73793 | 39.16340 | 2416 ft | 222 kts | 14° |
| 2026-05-01 08:37 | 21.75212 | 39.17140 | 2896 ft | 243 kts | 35° |
| 2026-05-01 08:38 | 21.76624 | 39.18284 | 3326 ft | 262 kts | 34° |
| 2026-05-01 08:38 | 21.78117 | 39.19433 | 4084 ft | 267 kts | 32° |
| 2026-05-01 08:38 | 21.79672 | 39.20539 | 4771 ft | 275 kts | 30° |
| 2026-05-01 08:38 | 21.81308 | 39.21657 | 5446 ft | 280 kts | 31° |
| 2026-05-01 08:39 | 21.82955 | 39.22813 | 5861 ft | 285 kts | 32° |
| 2026-05-01 08:39 | 21.84623 | 39.23994 | 6173 ft | 289 kts | 32° |
| 2026-05-01 08:39 | 21.86319 | 39.25193 | 6781 ft | 294 kts | 32° |
| 2026-05-01 08:39 | 21.88038 | 39.26405 | 7569 ft | 297 kts | 31° |
| 2026-05-01 08:40 | 21.91636 | 39.28684 | 9154 ft | 304 kts | 17° |
| 2026-05-01 08:40 | 21.93711 | 39.29067 | 9934 ft | 303 kts | 354° |
| 2026-05-01 08:40 | 21.95737 | 39.28520 | 10499 ft | 306 kts | 328° |
| 2026-05-01 08:41 | 21.97522 | 39.27200 | 10896 ft | 320 kts | 318° |
| 2026-05-01 08:41 | 21.99316 | 39.25666 | 11248 ft | 337 kts | 318° |
| 2026-05-01 08:41 | 22.01207 | 39.24065 | 11579 ft | 353 kts | 319° |
| 2026-05-01 08:41 | 22.03172 | 39.22418 | 12020 ft | 363 kts | 319° |
| 2026-05-01 08:42 | 22.05166 | 39.20760 | 12576 ft | 369 kts | 320° |
| 2026-05-01 08:42 | 22.07236 | 39.19041 | 13201 ft | 372 kts | 320° |
| 2026-05-01 08:42 | 22.09294 | 39.17330 | 13810 ft | 376 kts | 320° |
| 2026-05-01 08:42 | 22.11349 | 39.15621 | 14342 ft | 379 kts | 320° |
| 2026-05-01 08:43 | 22.13440 | 39.13880 | 14880 ft | 382 kts | 320° |
| 2026-05-01 08:43 | 22.15552 | 39.12122 | 15433 ft | 385 kts | 320° |
| 2026-05-01 08:43 | 22.17680 | 39.10350 | 15988 ft | 388 kts | 320° |
| 2026-05-01 08:43 | 22.19823 | 39.08563 | 16546 ft | 390 kts | 320° |
| 2026-05-01 08:44 | 22.21979 | 39.06767 | 17116 ft | 393 kts | 320° |
| 2026-05-01 08:44 | 22.24155 | 39.04953 | 17688 ft | 396 kts | 320° |
| 2026-05-01 08:44 | 22.26343 | 39.03130 | 18259 ft | 399 kts | 320° |
| 2026-05-01 08:44 | 22.28547 | 39.01292 | 18757 ft | 402 kts | 320° |
| 2026-05-01 08:45 | 22.30765 | 38.99441 | 19274 ft | 404 kts | 319° |
| 2026-05-01 08:45 | 22.32997 | 38.97577 | 19793 ft | 407 kts | 319° |
| 2026-05-01 08:45 | 22.35242 | 38.95701 | 20306 ft | 410 kts | 319° |
| 2026-05-01 08:45 | 22.37502 | 38.93810 | 20869 ft | 413 kts | 319° |
| 2026-05-01 08:46 | 22.39789 | 38.91896 | 21424 ft | 416 kts | 319° |
| 2026-05-01 08:46 | 22.42082 | 38.89977 | 21970 ft | 419 kts | 319° |
| 2026-05-01 08:46 | 22.44393 | 38.88041 | 22523 ft | 422 kts | 319° |
| 2026-05-01 08:46 | 22.46694 | 38.86114 | 23062 ft | 425 kts | 319° |
| 2026-05-01 08:47 | 22.49039 | 38.84148 | 23615 ft | 428 kts | 319° |
| 2026-05-01 08:47 | 22.51399 | 38.82170 | 24095 ft | 431 kts | 318° |
| 2026-05-01 08:47 | 22.53779 | 38.80174 | 24635 ft | 433 kts | 318° |
| 2026-05-01 08:47 | 22.56164 | 38.78174 | 25178 ft | 436 kts | 318° |
| 2026-05-01 08:48 | 22.58568 | 38.76156 | 25686 ft | 438 kts | 318° |
| 2026-05-01 08:48 | 22.60982 | 38.74129 | 26226 ft | 441 kts | 317° |
| 2026-05-01 08:48 | 22.63463 | 38.72155 | 26750 ft | 446 kts | 322° |
| 2026-05-01 08:48 | 22.66211 | 38.70524 | 27269 ft | 454 kts | 329° |
| 2026-05-01 08:49 | 22.69104 | 38.69122 | 27765 ft | 458 kts | 332° |
| 2026-05-01 08:49 | 22.72078 | 38.67796 | 28270 ft | 462 kts | 333° |
| 2026-05-01 08:49 | 22.75072 | 38.66506 | 28725 ft | 466 kts | 333° |
| 2026-05-01 08:49 | 22.78107 | 38.65205 | 29169 ft | 470 kts | 333° |
| 2026-05-01 08:50 | 22.81147 | 38.63892 | 29628 ft | 472 kts | 332° |
| 2026-05-01 08:50 | 22.84202 | 38.62559 | 30095 ft | 475 kts | 332° |
| 2026-05-01 08:50 | 22.87271 | 38.61206 | 30461 ft | 478 kts | 332° |
| 2026-05-01 08:50 | 22.90362 | 38.59835 | 30824 ft | 480 kts | 331° |
| 2026-05-01 08:51 | 22.93467 | 38.58453 | 31181 ft | 483 kts | 331° |
| 2026-05-01 08:51 | 22.96578 | 38.57066 | 31525 ft | 485 kts | 331° |
| 2026-05-01 08:51 | 22.98646 | 38.56144 | 31752 ft | 486 kts | 331° |
| 2026-05-01 08:51 | 23.01792 | 38.54740 | 32085 ft | 489 kts | 330° |
| 2026-05-01 08:52 | 23.04950 | 38.53332 | 32406 ft | 491 kts | 330° |
| 2026-05-01 08:52 | 23.09132 | 38.51467 | 32898 ft | 492 kts | 330° |
| 2026-05-01 08:52 | 23.12297 | 38.50059 | 33367 ft | 490 kts | 330° |
| 2026-05-01 08:52 | 23.14381 | 38.49132 | 33668 ft | 489 kts | 330° |
| 2026-05-01 08:53 | 23.17529 | 38.47730 | 34094 ft | 487 kts | 329° |
| 2026-05-01 08:53 | 23.20665 | 38.46330 | 34466 ft | 486 kts | 329° |
| 2026-05-01 08:53 | 23.23792 | 38.44933 | 34824 ft | 485 kts | 329° |
| 2026-05-01 08:53 | 23.26900 | 38.43543 | 35199 ft | 483 kts | 329° |
| 2026-05-01 08:54 | 23.30014 | 38.42150 | 35557 ft | 482 kts | 329° |
| 2026-05-01 08:54 | 23.33105 | 38.40766 | 35926 ft | 481 kts | 329° |
| 2026-05-01 08:54 | 23.36198 | 38.39381 | 36255 ft | 480 kts | 329° |
| 2026-05-01 08:54 | 23.39272 | 38.38003 | 36598 ft | 478 kts | 329° |
| 2026-05-01 08:55 | 23.42351 | 38.36622 | 36956 ft | 477 kts | 329° |
| 2026-05-01 08:55 | 23.45422 | 38.35245 | 37290 ft | 476 kts | 329° |
| 2026-05-01 08:55 | 23.48471 | 38.33877 | 37639 ft | 474 kts | 329° |
| 2026-05-01 08:55 | 23.51525 | 38.32505 | 37960 ft | 473 kts | 329° |
| 2026-05-01 08:56 | 23.54557 | 38.31143 | 38288 ft | 472 kts | 329° |
| 2026-05-01 08:56 | 23.57593 | 38.29778 | 38610 ft | 471 kts | 329° |
| 2026-05-01 08:56 | 23.60613 | 38.28420 | 38866 ft | 470 kts | 329° |
| 2026-05-01 08:56 | 23.63646 | 38.27055 | 39063 ft | 470 kts | 329° |
| 2026-05-01 08:57 | 23.66670 | 38.25695 | 39255 ft | 470 kts | 329° |
| 2026-05-01 08:57 | 23.69656 | 38.24351 | 39447 ft | 470 kts | 329° |
| 2026-05-01 08:57 | 23.72688 | 38.22983 | 39637 ft | 471 kts | 329° |
| 2026-05-01 08:57 | 23.75712 | 38.21617 | 39836 ft | 471 kts | 329° |
| 2026-05-01 08:58 | 23.78746 | 38.20246 | 39941 ft | 472 kts | 329° |
| 2026-05-01 08:58 | 23.81778 | 38.18876 | 39946 ft | 471 kts | 329° |
| 2026-05-01 08:58 | 23.87849 | 38.16133 | 39931 ft | 475 kts | 329° |
| 2026-05-01 08:59 | 23.94010 | 38.13342 | 39913 ft | 482 kts | 329° |
| 2026-05-01 08:59 | 24.00228 | 38.10528 | 39899 ft | 484 kts | 329° |
| 2026-05-01 09:00 | 24.06452 | 38.07713 | 39886 ft | 484 kts | 329° |
| 2026-05-01 09:00 | 24.12686 | 38.04873 | 39882 ft | 482 kts | 328° |
| 2026-05-01 09:01 | 24.18368 | 38.01298 | 39884 ft | 471 kts | 319° |
| 2026-05-01 09:01 | 24.23804 | 37.97290 | 39891 ft | 470 kts | 318° |
| 2026-05-01 09:02 | 24.29183 | 37.93227 | 39890 ft | 469 kts | 317° |
| 2026-05-01 09:02 | 24.34571 | 37.89161 | 39888 ft | 469 kts | 317° |
| 2026-05-01 09:03 | 24.39956 | 37.85109 | 39888 ft | 469 kts | 318° |
| 2026-05-01 09:03 | 24.45350 | 37.81051 | 39898 ft | 469 kts | 317° |
| 2026-05-01 09:04 | 24.50702 | 37.77022 | 39904 ft | 469 kts | 317° |
| 2026-05-01 09:04 | 24.56090 | 37.72960 | 39906 ft | 469 kts | 317° |
| 2026-05-01 09:05 | 24.61462 | 37.68905 | 39910 ft | 468 kts | 317° |
| 2026-05-01 09:05 | 24.66836 | 37.64846 | 39920 ft | 468 kts | 317° |
| 2026-05-01 09:06 | 24.72199 | 37.60789 | 39922 ft | 468 kts | 317° |
| 2026-05-01 09:06 | 24.77564 | 37.56726 | 39926 ft | 467 kts | 317° |
| 2026-05-01 09:07 | 24.82923 | 37.52665 | 39931 ft | 467 kts | 317° |
| 2026-05-01 09:07 | 24.88233 | 37.48636 | 39922 ft | 467 kts | 317° |
| 2026-05-01 09:08 | 24.93588 | 37.44565 | 39942 ft | 466 kts | 317° |
| 2026-05-01 09:08 | 24.98932 | 37.40501 | 39934 ft | 466 kts | 317° |
| 2026-05-01 09:09 | 25.04275 | 37.36433 | 39941 ft | 466 kts | 317° |
| 2026-05-01 09:09 | 25.09609 | 37.32369 | 39942 ft | 466 kts | 317° |
| 2026-05-01 09:10 | 25.14948 | 37.28296 | 39945 ft | 466 kts | 317° |
| 2026-05-01 09:10 | 25.20251 | 37.24247 | 39948 ft | 466 kts | 317° |
| 2026-05-01 09:11 | 25.25582 | 37.20170 | 39948 ft | 466 kts | 317° |
| 2026-05-01 09:11 | 25.30921 | 37.16090 | 39940 ft | 466 kts | 317° |
| 2026-05-01 09:12 | 25.36257 | 37.11999 | 39931 ft | 466 kts | 317° |
| 2026-05-01 09:12 | 25.41594 | 37.07905 | 39923 ft | 466 kts | 317° |
| 2026-05-01 09:13 | 25.46929 | 37.03806 | 39920 ft | 466 kts | 317° |
| 2026-05-01 09:13 | 25.52219 | 36.99733 | 39918 ft | 466 kts | 317° |
| 2026-05-01 09:14 | 25.57547 | 36.95629 | 39914 ft | 466 kts | 317° |
| 2026-05-01 09:14 | 25.62868 | 36.91527 | 39917 ft | 466 kts | 317° |
| 2026-05-01 09:15 | 25.68189 | 36.87422 | 39916 ft | 466 kts | 317° |
| 2026-05-01 09:15 | 25.73515 | 36.83308 | 39916 ft | 466 kts | 317° |
| 2026-05-01 09:16 | 25.78831 | 36.79197 | 39918 ft | 466 kts | 316° |
| 2026-05-01 09:17 | 25.86768 | 36.73050 | 39916 ft | 465 kts | 316° |
| 2026-05-01 09:17 | 25.94740 | 36.66866 | 39908 ft | 465 kts | 316° |
| 2026-05-01 09:18 | 26.02703 | 36.60679 | 39912 ft | 465 kts | 316° |
| 2026-05-01 09:19 | 26.10626 | 36.54512 | 39913 ft | 465 kts | 316° |
| 2026-05-01 09:20 | 26.18400 | 36.48114 | 39914 ft | 456 kts | 309° |
| 2026-05-01 09:21 | 26.27269 | 36.38127 | 39915 ft | 452 kts | 306° |
| 2026-05-01 09:21 | 26.33808 | 36.30542 | 39911 ft | 452 kts | 306° |
| 2026-05-01 09:22 | 26.42558 | 36.20423 | 39906 ft | 452 kts | 306° |
| 2026-05-01 09:23 | 26.49105 | 36.12844 | 39909 ft | 452 kts | 306° |
| 2026-05-01 09:24 | 26.55616 | 36.05293 | 39909 ft | 452 kts | 307° |
| 2026-05-01 09:25 | 26.64321 | 35.95178 | 39905 ft | 451 kts | 307° |
| 2026-05-01 09:26 | 26.70853 | 35.87572 | 39909 ft | 451 kts | 307° |
| 2026-05-01 09:26 | 26.77314 | 35.80035 | 39917 ft | 451 kts | 307° |
| 2026-05-01 09:27 | 26.83806 | 35.72456 | 39917 ft | 451 kts | 307° |
| 2026-05-01 09:28 | 26.88147 | 35.67372 | 39922 ft | 451 kts | 307° |
| 2026-05-01 09:28 | 26.92542 | 35.62221 | 39918 ft | 451 kts | 307° |
| 2026-05-01 09:29 | 27.03346 | 35.49542 | 39925 ft | 451 kts | 307° |
| 2026-05-01 09:30 | 27.16342 | 35.34235 | 39921 ft | 451 kts | 307° |
| 2026-05-01 09:30 | 27.29250 | 35.18950 | 39923 ft | 451 kts | 307° |
| 2026-05-01 09:31 | 27.37890 | 35.08709 | 39917 ft | 451 kts | 307° |
| 2026-05-01 09:32 | 27.50866 | 34.93278 | 39914 ft | 452 kts | 307° |
| 2026-05-01 09:32 | 27.64682 | 34.78609 | 39902 ft | 456 kts | 310° |
| 2026-05-01 09:33 | 27.73949 | 34.68823 | 39897 ft | 455 kts | 310° |
| 2026-05-01 09:34 | 27.87724 | 34.54176 | 39923 ft | 455 kts | 310° |
| 2026-05-01 09:34 | 27.98736 | 34.42425 | 39938 ft | 453 kts | 309° |
| 2026-05-01 09:35 | 28.10770 | 34.26172 | 39930 ft | 448 kts | 304° |
| 2026-05-01 09:36 | 28.18659 | 34.15205 | 39925 ft | 448 kts | 304° |
| 2026-05-01 09:36 | 28.26486 | 34.04322 | 39926 ft | 448 kts | 304° |
| 2026-05-01 09:37 | 28.34357 | 33.93349 | 39925 ft | 447 kts | 304° |
| 2026-05-01 09:37 | 28.46170 | 33.76856 | 39933 ft | 449 kts | 304° |
| 2026-05-01 09:38 | 28.57993 | 33.60275 | 39941 ft | 450 kts | 304° |
| 2026-05-01 09:39 | 28.68462 | 33.45558 | 39955 ft | 449 kts | 304° |
| 2026-05-01 09:39 | 28.76306 | 33.34456 | 39953 ft | 449 kts | 304° |
| 2026-05-01 09:40 | 28.89250 | 33.16107 | 39956 ft | 438 kts | 304° |
| 2026-05-01 09:41 | 28.96816 | 33.05338 | 39960 ft | 434 kts | 304° |
| 2026-05-01 09:41 | 29.06914 | 32.90920 | 39556 ft | 434 kts | 304° |
| 2026-05-01 09:42 | 29.10690 | 32.85516 | 39073 ft | 434 kts | 304° |
| 2026-05-01 09:42 | 29.14390 | 32.80217 | 37832 ft | 433 kts | 304° |
| 2026-05-01 09:42 | 29.21932 | 32.69391 | 35081 ft | 437 kts | 304° |
| 2026-05-01 09:43 | 29.29635 | 32.58298 | 31625 ft | 451 kts | 305° |
| 2026-05-01 09:43 | 29.33542 | 32.52618 | 29710 ft | 458 kts | 305° |
| 2026-05-01 09:43 | 29.37491 | 32.46853 | 28007 ft | 457 kts | 305° |
| 2026-05-01 09:44 | 29.45216 | 32.35575 | 25254 ft | 444 kts | 305° |
| 2026-05-01 09:44 | 29.48876 | 32.30219 | 23916 ft | 438 kts | 305° |
| 2026-05-01 09:44 | 29.52604 | 32.24754 | 22471 ft | 431 kts | 305° |
| 2026-05-01 09:45 | 29.56272 | 32.19368 | 21106 ft | 422 kts | 305° |
| 2026-05-01 09:45 | 29.63379 | 32.08919 | 18368 ft | 409 kts | 306° |
| 2026-05-01 09:45 | 29.66805 | 32.03872 | 16904 ft | 401 kts | 306° |
| 2026-05-01 09:46 | 29.70243 | 31.98802 | 15486 ft | 393 kts | 306° |
| 2026-05-01 09:46 | 29.73549 | 31.93918 | 14146 ft | 384 kts | 307° |
| 2026-05-01 09:46 | 29.76661 | 31.89322 | 12704 ft | 343 kts | 307° |
| 2026-05-01 09:46 | 29.79580 | 31.84981 | 11744 ft | 349 kts | 307° |
| 2026-05-01 09:47 | 29.82437 | 31.80531 | 11412 ft | 330 kts | 306° |
| 2026-05-01 09:47 | 29.83843 | 31.78314 | 11263 ft | 291 kts | 306° |
| 2026-05-01 09:47 | 29.85319 | 31.75987 | 11087 ft | 262 kts | 306° |
| 2026-05-01 09:47 | 29.87517 | 31.72531 | 10720 ft | 271 kts | 306° |
| 2026-05-01 09:48 | 29.89734 | 31.69064 | 10253 ft | 267 kts | 306° |
| 2026-05-01 09:48 | 29.91333 | 31.66030 | 9853 ft | 268 kts | 291° |
| 2026-05-01 09:48 | 29.91826 | 31.63964 | 9598 ft | 268 kts | 284° |
| 2026-05-01 09:48 | 29.92204 | 31.61854 | 9331 ft | 268 kts | 283° |
| 2026-05-01 09:49 | 29.92560 | 31.59745 | 9131 ft | 268 kts | 283° |
| 2026-05-01 09:49 | 29.92911 | 31.57629 | 8941 ft | 269 kts | 283° |
| 2026-05-01 09:49 | 29.93226 | 31.55510 | 8580 ft | 268 kts | 278° |
| 2026-05-01 09:49 | 29.93195 | 31.53376 | 7843 ft | 266 kts | 266° |
| 2026-05-01 09:50 | 29.92958 | 31.51279 | 6998 ft | 269 kts | 265° |
| 2026-05-01 09:50 | 29.92693 | 31.49133 | 6171 ft | 270 kts | 264° |
| 2026-05-01 09:50 | 29.92439 | 31.46984 | 5329 ft | 269 kts | 264° |
| 2026-05-01 09:50 | 29.92206 | 31.44845 | 4552 ft | 268 kts | 264° |
| 2026-05-01 09:51 | 29.91992 | 31.42728 | 3802 ft | 264 kts | 264° |
| 2026-05-01 09:51 | 29.91799 | 31.40636 | 3081 ft | 259 kts | 264° |
| 2026-05-01 09:51 | 29.91611 | 31.38604 | 2639 ft | 249 kts | 264° |
| 2026-05-01 09:51 | 29.91449 | 31.36710 | 2491 ft | 226 kts | 265° |
| 2026-05-01 09:52 | 29.91302 | 31.34977 | 2476 ft | 209 kts | 265° |
| 2026-05-01 09:52 | 29.91168 | 31.33386 | 2495 ft | 190 kts | 265° |
| 2026-05-01 09:52 | 29.91240 | 31.31959 | 2488 ft | 174 kts | 281° |
| 2026-05-01 09:52 | 29.91616 | 31.30651 | 2485 ft | 171 kts | 296° |
| 2026-05-01 09:53 | 29.92311 | 31.29522 | 2495 ft | 173 kts | 312° |
| 2026-05-01 09:53 | 29.93189 | 31.28571 | 2508 ft | 173 kts | 318° |
| 2026-05-01 09:53 | 29.94100 | 31.27662 | 2504 ft | 173 kts | 318° |
| 2026-05-01 09:53 | 29.95018 | 31.26761 | 2503 ft | 173 kts | 318° |
| 2026-05-01 09:54 | 29.95936 | 31.25877 | 2501 ft | 173 kts | 320° |
| 2026-05-01 09:54 | 29.97030 | 31.25311 | 2504 ft | 176 kts | 354° |
| 2026-05-01 09:54 | 29.98240 | 31.25496 | 2503 ft | 175 kts | 14° |
| 2026-05-01 09:54 | 29.99380 | 31.26000 | 2482 ft | 178 kts | 30° |
| 2026-05-01 09:55 | 30.00291 | 31.26923 | 2501 ft | 169 kts | 48° |
| 2026-05-01 09:55 | 30.01027 | 31.27926 | 2493 ft | 159 kts | 47° |
| 2026-05-01 09:55 | 30.01709 | 31.28828 | 2497 ft | 147 kts | 47° |
| 2026-05-01 09:55 | 30.02370 | 31.29707 | 2494 ft | 144 kts | 47° |
| 2026-05-01 09:56 | 30.03023 | 31.30571 | 2446 ft | 143 kts | 47° |
| 2026-05-01 09:56 | 30.03686 | 31.31442 | 2296 ft | 146 kts | 48° |
| 2026-05-01 09:56 | 30.04343 | 31.32335 | 2076 ft | 145 kts | 48° |
| 2026-05-01 09:56 | 30.05018 | 31.33202 | 1864 ft | 145 kts | 47° |
| 2026-05-01 09:57 | 30.05667 | 31.34074 | 1673 ft | 141 kts | 48° |
| 2026-05-01 09:57 | 30.06308 | 31.34939 | 1467 ft | 141 kts | 47° |
| 2026-05-01 09:57 | 30.06956 | 31.35794 | 1325 ft | 141 kts | 48° |
| 2026-05-01 09:57 | 30.07606 | 31.36655 | 1109 ft | 141 kts | 47° |
| 2026-05-01 09:58 | 30.08243 | 31.37511 | 944 ft | 140 kts | 47° |
| 2026-05-01 09:58 | 30.08873 | 31.38353 | 770 ft | 138 kts | 47° |
| 2026-05-01 09:58 | 30.09502 | 31.39196 | 577 ft | 138 kts | 47° |
| 2026-05-01 09:58 | 30.10126 | 31.40024 | 411 ft | 137 kts | 46° |
| 2026-05-01 09:59 | 30.10718 | 31.40821 | 391 ft | 107 kts | 50° |
| 2026-05-01 09:59 | 30.11063 | 31.41284 | 393 ft | 46 kts | 49° |
| 2026-05-01 09:59 | 30.11249 | 31.41520 | 392 ft | 38 kts | 38° |
| 2026-05-01 09:59 | 30.11485 | 31.41623 | 383 ft | 28 kts | 6° |
| 2026-05-01 10:00 | 30.11528 | 31.41507 | 375 ft | 21 kts | 232° |
| 2026-05-01 10:00 | 30.11426 | 31.41368 | 375 ft | 24 kts | 229° |
| 2026-05-01 10:00 | 30.11310 | 31.41213 | 376 ft | 27 kts | 229° |
| 2026-05-01 10:00 | 30.11182 | 31.41044 | 376 ft | 29 kts | 228° |
| 2026-05-01 10:01 | 30.11044 | 31.40860 | 376 ft | 31 kts | 229° |
| 2026-05-01 10:01 | 30.10897 | 31.40666 | 377 ft | 33 kts | 229° |
| 2026-05-01 10:01 | 30.10757 | 31.40477 | 377 ft | 25 kts | 229° |
| 2026-05-01 10:01 | 30.10691 | 31.40348 | 376 ft | 17 kts | 286° |
| 2026-05-01 10:02 | 30.10670 | 31.40203 | 375 ft | 21 kts | 231° |
| 2026-05-01 10:02 | 30.10566 | 31.40064 | 375 ft | 24 kts | 229° |
| 2026-05-01 10:02 | 30.10489 | 31.39918 | 371 ft | 22 kts | 275° |
| 2026-05-01 10:02 | 30.10621 | 31.39829 | 364 ft | 26 kts | 345° |
| 2026-05-01 10:03 | 30.10791 | 31.39779 | 358 ft | 20 kts | 345° |
| 2026-05-01 10:03 | 30.10879 | 31.39761 | 352 ft | 12 kts | 17° |
| 2026-05-01 10:03 | 30.10917 | 31.39821 | 348 ft | 7 kts | 71° |
| 2026-05-01 10:03 | 30.10918 | 31.39830 | 345 ft | 0 kts | 74° |